Time;durP1;ratioP1;P1;durP2;ratioP2;P2;SDS_P1;SDS_P2;PMS_P1;PMS_P2;Temp;Humidity;BMP_temperature;BMP_pressure;BME280_temperature;BME280_humidity;BME280_pressure;Samples;Min_cycle;Max_cycle;Signal;HPM_P1;HPM_P2
2023/04/12 00:00:44;;;;;;;6.20;3.30;;;;;;;;;;5054582;28;20312;-65
2023/04/12 00:03:12;;;;;;;7.03;3.60;;;;;;;;;;5056662;28;20244;-63
2023/04/12 00:05:45;;;;;;;9.80;3.97;;;;;;;;;;5068579;28;20213;-63
2023/04/12 00:08:13;;;;;;;6.43;3.30;;;;;;;;;;5056575;28;20678;-65
2023/04/12 00:10:40;;;;;;;4.80;3.50;;;;;;;;;;5065080;28;20832;-65
2023/04/12 00:13:08;;;;;;;5.63;3.20;;;;;;;;;;5065082;28;20216;-65
2023/04/12 00:15:35;;;;;;;6.00;3.50;;;;;;;;;;5066644;28;20243;-64
2023/04/12 00:18:02;;;;;;;7.90;3.50;;;;;;;;;;5059877;28;20581;-65
2023/04/12 00:20:30;;;;;;;4.67;3.80;;;;;;;;;;5061905;28;20225;-64
2023/04/12 00:22:57;;;;;;;4.80;3.77;;;;;;;;;;5080200;28;20278;-64
2023/04/12 00:25:25;;;;;;;5.70;3.57;;;;;;;;;;5078877;28;20209;-65
2023/04/12 00:27:52;;;;;;;9.27;4.10;;;;;;;;;;5065989;28;20833;-65
2023/04/12 00:30:20;;;;;;;6.20;4.30;;;;;;;;;;5061869;28;20277;-64
2023/04/12 00:32:47;;;;;;;5.37;3.87;;;;;;;;;;5066165;28;20225;-66
2023/04/12 00:35:14;;;;;;;5.87;4.23;;;;;;;;;;5063975;28;20205;-63
2023/04/12 00:37:42;;;;;;;6.10;4.67;;;;;;;;;;5078237;28;20284;-65
2023/04/12 00:40:09;;;;;;;8.47;5.10;;;;;;;;;;5064526;28;20216;-65
2023/04/12 00:42:37;;;;;;;7.90;5.10;;;;;;;;;;5069732;28;20213;-65
2023/04/12 00:45:05;;;;;;;9.10;5.20;;;;;;;;;;5052455;28;21136;-65
2023/04/12 00:47:36;;;;;;;6.97;4.63;;;;;;;;;;5067615;28;20215;-66
2023/04/12 00:50:05;;;;;;;9.27;5.10;;;;;;;;;;5075017;28;20275;-65
2023/04/12 00:52:33;;;;;;;8.20;5.00;;;;;;;;;;5057044;28;20310;-63
2023/04/12 00:55:04;;;;;;;9.20;5.90;;;;;;;;;;5072429;28;20237;-63
2023/04/12 00:57:35;;;;;;;7.87;4.97;;;;;;;;;;5077339;28;20201;-64
2023/04/12 01:00:11;;;;;;;7.73;5.13;;;;;;;;;;5076041;28;20309;-64
2023/04/12 01:02:45;;;;;;;7.87;5.50;;;;;;;;;;5068999;28;20212;-65
2023/04/12 01:05:20;;;;;;;6.10;5.43;;;;;;;;;;5073883;28;20308;-65
2023/04/12 01:07:53;;;;;;;6.60;5.20;;;;;;;;;;5054393;28;21204;-66
2023/04/12 01:10:36;;;;;;;5.97;3.93;;;;;;;;;;5073329;28;20236;-65
2023/04/12 01:13:09;;;;;;;6.53;4.80;;;;;;;;;;5070554;28;20252;-65
2023/04/12 01:15:39;;;;;;;5.03;4.43;;;;;;;;;;5070380;28;20224;-65
2023/04/12 01:18:14;;;;;;;4.37;3.97;;;;;;;;;;5068132;28;20206;-64
2023/04/12 01:20:50;;;;;;;3.97;3.50;;;;;;;;;;5062206;28;20306;-65
2023/04/12 01:23:41;;;;;;;3.03;2.63;;;;;;;;;;5059186;28;20229;-64
2023/04/12 01:26:11;;;;;;;4.67;3.17;;;;;;;;;;5035615;28;20228;-65
2023/04/12 01:28:42;;;;;;;3.07;2.60;;;;;;;;;;5075310;28;20296;-64
2023/04/12 01:31:11;;;;;;;2.87;2.50;;;;;;;;;;5055539;28;20214;-65
2023/04/12 01:33:40;;;;;;;2.67;2.37;;;;;;;;;;5056805;28;20264;-65
2023/04/12 01:36:12;;;;;;;2.87;2.57;;;;;;;;;;5067546;28;20291;-65
2023/04/12 01:38:41;;;;;;;2.63;2.43;;;;;;;;;;5073640;28;20655;-65
2023/04/12 01:41:09;;;;;;;2.83;2.63;;;;;;;;;;5054261;28;20890;-65
2023/04/12 01:43:43;;;;;;;4.93;3.30;;;;;;;;;;5052783;28;20205;-63
2023/04/12 01:46:12;;;;;;;3.23;2.93;;;;;;;;;;5071884;28;20560;-64
2023/04/12 01:48:40;;;;;;;3.73;3.10;;;;;;;;;;5056478;28;20197;-66
2023/04/12 01:51:13;;;;;;;3.67;3.30;;;;;;;;;;5050089;28;20201;-65
2023/04/12 01:53:53;;;;;;;3.70;3.40;;;;;;;;;;5053703;28;20706;-65
2023/04/12 01:56:22;;;;;;;3.10;2.90;;;;;;;;;;5070549;28;20213;-65
2023/04/12 01:58:51;;;;;;;3.50;3.20;;;;;;;;;;5048110;28;20367;-65
2023/04/12 02:01:18;;;;;;;3.80;3.37;;;;;;;;;;5064636;28;20362;-64
2023/04/12 02:03:48;;;;;;;5.53;3.33;;;;;;;;;;5056422;28;20209;-63
2023/04/12 02:06:21;;;;;;;3.83;3.17;;;;;;;;;;5060719;28;20265;-64
2023/04/12 02:08:49;;;;;;;3.73;3.37;;;;;;;;;;5066204;28;22115;-65
2023/04/12 02:11:16;;;;;;;3.83;3.30;;;;;;;;;;5057636;28;20243;-63
2023/04/12 02:13:44;;;;;;;5.53;3.60;;;;;;;;;;5056164;28;20226;-64
2023/04/12 02:16:12;;;;;;;3.97;3.53;;;;;;;;;;5061214;28;20274;-65
2023/04/12 02:18:41;;;;;;;3.40;3.10;;;;;;;;;;5070467;28;20204;-64
2023/04/12 02:21:08;;;;;;;4.10;3.70;;;;;;;;;;5056403;28;20198;-64
2023/04/12 02:23:35;;;;;;;5.60;3.53;;;;;;;;;;5057690;28;20643;-65
2023/04/12 02:26:03;;;;;;;3.53;2.83;;;;;;;;;;5064831;28;20229;-65
2023/04/12 02:28:32;;;;;;;4.80;3.33;;;;;;;;;;5052485;28;20289;-65
2023/04/12 02:31:01;;;;;;;3.20;2.90;;;;;;;;;;5071537;28;20236;-65
2023/04/12 02:33:29;;;;;;;2.90;2.60;;;;;;;;;;5067447;28;20225;-64
2023/04/12 02:35:57;;;;;;;4.87;2.90;;;;;;;;;;5055525;28;20228;-63
2023/04/12 02:38:25;;;;;;;3.27;2.60;;;;;;;;;;5048164;28;20262;-63
2023/04/12 02:40:52;;;;;;;3.20;2.90;;;;;;;;;;5058614;28;20232;-65
2023/04/12 02:43:19;;;;;;;3.77;2.90;;;;;;;;;;5050360;28;20209;-63
2023/04/12 02:45:48;;;;;;;5.23;3.10;;;;;;;;;;5051907;28;20252;-64
2023/04/12 02:48:15;;;;;;;3.33;3.10;;;;;;;;;;5047506;28;20217;-63
2023/04/12 02:50:42;;;;;;;3.33;3.00;;;;;;;;;;5041932;28;20319;-63
2023/04/12 02:53:10;;;;;;;3.47;3.20;;;;;;;;;;5049368;28;20348;-66
2023/04/12 02:55:37;;;;;;;3.20;2.90;;;;;;;;;;5062204;28;22850;-65
2023/04/12 02:58:06;;;;;;;3.47;3.20;;;;;;;;;;5046345;28;20205;-66
2023/04/12 03:00:33;;;;;;;5.80;3.80;;;;;;;;;;5050202;28;20310;-64
2023/04/12 03:03:01;;;;;;;3.60;3.30;;;;;;;;;;5064886;28;20209;-65
2023/04/12 03:05:29;;;;;;;4.33;3.53;;;;;;;;;;5058608;28;20220;-64
2023/04/12 03:07:57;;;;;;;3.70;3.40;;;;;;;;;;5046967;28;20235;-64
2023/04/12 03:10:24;;;;;;;5.17;3.30;;;;;;;;;;5051401;28;20282;-64
2023/04/12 03:12:51;;;;;;;4.97;3.63;;;;;;;;;;5042884;28;20497;-64
2023/04/12 03:15:22;;;;;;;6.33;4.07;;;;;;;;;;5044945;28;20212;-65
2023/04/12 03:17:50;;;;;;;4.13;3.70;;;;;;;;;;5059042;28;21380;-66
2023/04/12 03:20:19;;;;;;;7.13;3.90;;;;;;;;;;5067794;28;20260;-65
2023/04/12 03:22:46;;;;;;;5.80;3.97;;;;;;;;;;5066692;28;20287;-65
2023/04/12 03:25:14;;;;;;;4.47;4.10;;;;;;;;;;5050848;28;20251;-63
2023/04/12 03:27:41;;;;;;;5.67;4.53;;;;;;;;;;5046848;28;20765;-66
2023/04/12 03:30:12;;;;;;;6.60;5.70;;;;;;;;;;5068497;28;20737;-63
2023/04/12 03:32:40;;;;;;;6.30;5.70;;;;;;;;;;5054814;28;20329;-64
2023/04/12 03:35:09;;;;;;;9.13;5.73;;;;;;;;;;5062703;28;20254;-66
2023/04/12 03:37:36;;;;;;;24.30;14.03;;;;;;;;;;5054966;28;20205;-66
2023/04/12 03:40:05;;;;;;;14.17;9.43;;;;;;;;;;5066242;28;20569;-64
2023/04/12 03:42:32;;;;;;;6.50;5.90;;;;;;;;;;5054303;28;20224;-64
2023/04/12 03:45:00;;;;;;;6.63;5.13;;;;;;;;;;5066536;28;20327;-64
2023/04/12 03:47:27;;;;;;;7.27;6.27;;;;;;;;;;5081205;28;20237;-64
2023/04/12 03:49:55;;;;;;;5.80;5.30;;;;;;;;;;5068313;28;20312;-64
2023/04/12 03:52:25;;;;;;;5.47;4.87;;;;;;;;;;5052233;28;20211;-65
2023/04/12 03:54:53;;;;;;;5.57;5.07;;;;;;;;;;5046474;28;20335;-66
2023/04/12 03:57:20;;;;;;;5.13;4.70;;;;;;;;;;5051306;28;20339;-64
2023/04/12 03:59:47;;;;;;;5.43;4.93;;;;;;;;;;5044155;28;20830;-64
2023/04/12 04:02:15;;;;;;;7.20;5.20;;;;;;;;;;5061676;28;20237;-64
2023/04/12 04:04:42;;;;;;;5.40;4.90;;;;;;;;;;5058447;28;20217;-66
2023/04/12 04:07:10;;;;;;;5.33;4.83;;;;;;;;;;5052725;28;20204;-64
2023/04/12 04:09:37;;;;;;;5.87;5.03;;;;;;;;;;5064335;28;20309;-64
2023/04/12 04:12:05;;;;;;;8.00;6.40;;;;;;;;;;5061831;28;20238;-67
2023/04/12 04:14:35;;;;;;;5.20;4.70;;;;;;;;;;5057329;28;20381;-65
2023/04/12 04:17:04;;;;;;;5.13;4.63;;;;;;;;;;5050399;28;20279;-66
2023/04/12 04:19:31;;;;;;;4.07;3.77;;;;;;;;;;5064239;28;22079;-63
2023/04/12 04:22:00;;;;;;;6.23;4.70;;;;;;;;;;5052973;28;21235;-66
2023/04/12 04:24:28;;;;;;;6.43;5.23;;;;;;;;;;5076611;28;20292;-64
2023/04/12 04:26:57;;;;;;;5.73;5.17;;;;;;;;;;5076919;28;20649;-64
2023/04/12 04:29:25;;;;;;;4.23;3.90;;;;;;;;;;5076725;28;20240;-65
2023/04/12 04:31:54;;;;;;;3.70;3.40;;;;;;;;;;5079144;28;20314;-65
2023/04/12 04:34:22;;;;;;;5.00;4.50;;;;;;;;;;5076605;28;20232;-65
2023/04/12 04:36:49;;;;;;;6.00;4.80;;;;;;;;;;5063487;28;20212;-65
2023/04/12 04:39:16;;;;;;;5.10;4.37;;;;;;;;;;5059180;28;20316;-65
2023/04/12 04:41:45;;;;;;;4.40;4.00;;;;;;;;;;5054403;28;20204;-65
2023/04/12 04:44:13;;;;;;;4.17;3.77;;;;;;;;;;5067583;28;20242;-65
2023/04/12 04:46:40;;;;;;;4.13;3.80;;;;;;;;;;5049205;28;20292;-64
2023/04/12 04:49:08;;;;;;;4.63;4.17;;;;;;;;;;5056976;28;20698;-65
2023/04/12 04:51:35;;;;;;;3.90;3.50;;;;;;;;;;5051076;28;20296;-65
2023/04/12 04:54:02;;;;;;;12.37;8.10;;;;;;;;;;5053789;28;20554;-66
2023/04/12 04:56:31;;;;;;;5.23;3.77;;;;;;;;;;5051165;28;20302;-65
2023/04/12 04:58:59;;;;;;;2.97;2.77;;;;;;;;;;5053706;28;20755;-65
2023/04/12 05:01:27;;;;;;;4.30;3.90;;;;;;;;;;5072119;28;20697;-65
2023/04/12 05:03:55;;;;;;;5.27;4.50;;;;;;;;;;5070604;28;20217;-65
2023/04/12 05:06:23;;;;;;;3.50;3.30;;;;;;;;;;5053363;28;20205;-65
2023/04/12 05:08:51;;;;;;;2.67;2.53;;;;;;;;;;5054978;28;20232;-65
2023/04/12 05:11:19;;;;;;;4.30;3.90;;;;;;;;;;5050491;28;20213;-65
2023/04/12 05:13:46;;;;;;;7.23;4.97;;;;;;;;;;5050607;28;20311;-65
2023/04/12 05:16:14;;;;;;;4.67;3.70;;;;;;;;;;5053807;28;20209;-65
2023/04/12 05:18:41;;;;;;;3.50;3.20;;;;;;;;;;5070031;28;20201;-67
2023/04/12 05:21:09;;;;;;;4.07;2.97;;;;;;;;;;5059347;28;20240;-66
2023/04/12 05:23:38;;;;;;;3.50;3.20;;;;;;;;;;5057060;28;20200;-65
2023/04/12 05:26:05;;;;;;;3.87;3.57;;;;;;;;;;5069091;28;21147;-66
2023/04/12 05:28:32;;;;;;;4.13;3.83;;;;;;;;;;5071898;28;20211;-65
2023/04/12 05:31:00;;;;;;;4.10;3.73;;;;;;;;;;5063038;28;20238;-64
2023/04/12 05:33:27;;;;;;;4.93;4.53;;;;;;;;;;5053987;28;20223;-64
2023/04/12 05:35:56;;;;;;;3.63;3.43;;;;;;;;;;5067058;28;20205;-64
2023/04/12 05:38:24;;;;;;;6.07;5.47;;;;;;;;;;5061356;28;21500;-64
2023/04/12 05:40:51;;;;;;;5.07;4.57;;;;;;;;;;5063294;28;20220;-64
2023/04/12 05:43:18;;;;;;;6.20;3.90;;;;;;;;;;5061344;28;20288;-64
2023/04/12 05:45:47;;;;;;;11.97;5.07;;;;;;;;;;5060003;28;20213;-64
2023/04/12 05:48:14;;;;;;;10.97;5.10;;;;;;;;;;5057951;28;20205;-64
2023/04/12 05:50:49;;;;;;;5.40;3.97;;;;;;;;;;5054525;28;20307;-64
2023/04/12 05:53:17;;;;;;;6.57;4.90;;;;;;;;;;5058780;28;20654;-64
2023/04/12 05:55:44;;;;;;;8.00;5.27;;;;;;;;;;5078375;28;20315;-64
2023/04/12 05:58:13;;;;;;;13.20;5.23;;;;;;;;;;5074749;28;20232;-64
2023/04/12 06:00:44;;;;;;;8.97;4.00;;;;;;;;;;5056126;28;20681;-64
2023/04/12 06:03:11;;;;;;;4.10;3.60;;;;;;;;;;5075845;28;20196;-65
2023/04/12 06:05:39;;;;;;;3.60;3.30;;;;;;;;;;5058240;28;20721;-64
2023/04/12 06:08:07;;;;;;;5.23;4.17;;;;;;;;;;5074430;28;23893;-64
2023/04/12 06:10:34;;;;;;;4.40;4.00;;;;;;;;;;5062273;28;20232;-63
2023/04/12 06:13:02;;;;;;;3.53;3.23;;;;;;;;;;5060476;28;20197;-62
2023/04/12 06:15:30;;;;;;;4.63;3.10;;;;;;;;;;5077809;28;20217;-63
2023/04/12 06:17:59;;;;;;;2.97;2.77;;;;;;;;;;5066710;28;20216;-63
2023/04/12 06:20:26;;;;;;;8.10;3.67;;;;;;;;;;5084147;28;20592;-63
2023/04/12 06:22:54;;;;;;;13.43;4.23;;;;;;;;;;5063222;28;20201;-65
2023/04/12 06:25:21;;;;;;;5.50;3.20;;;;;;;;;;5066409;28;20245;-65
2023/04/12 06:27:49;;;;;;;3.13;2.83;;;;;;;;;;5060868;28;20233;-65
2023/04/12 06:30:16;;;;;;;4.33;3.20;;;;;;;;;;5076511;28;20341;-65
2023/04/12 06:32:44;;;;;;;3.77;3.47;;;;;;;;;;5060511;28;20662;-63
2023/04/12 06:35:11;;;;;;;4.33;3.47;;;;;;;;;;5078366;28;20737;-63
2023/04/12 06:37:39;;;;;;;4.37;3.43;;;;;;;;;;5057059;28;20753;-65
2023/04/12 06:40:11;;;;;;;3.17;2.90;;;;;;;;;;5046200;28;20220;-64
2023/04/12 06:42:38;;;;;;;19.07;5.13;;;;;;;;;;5063786;28;20274;-64
2023/04/12 06:45:06;;;;;;;13.47;4.00;;;;;;;;;;5056852;28;20201;-64
2023/04/12 06:47:33;;;;;;;5.33;3.83;;;;;;;;;;5053700;28;20678;-64
2023/04/12 06:50:01;;;;;;;6.50;4.50;;;;;;;;;;5060211;28;20229;-64
2023/04/12 06:52:29;;;;;;;11.73;4.40;;;;;;;;;;5065727;28;20208;-64
2023/04/12 06:54:57;;;;;;;5.90;3.57;;;;;;;;;;5057990;28;20437;-64
2023/04/12 06:57:24;;;;;;;3.97;3.30;;;;;;;;;;5052532;28;20296;-64
2023/04/12 06:59:51;;;;;;;4.60;3.00;;;;;;;;;;5046868;28;20250;-64
2023/04/12 07:02:19;;;;;;;5.00;3.40;;;;;;;;;;5036402;28;20197;-65
2023/04/12 07:04:46;;;;;;;3.77;3.47;;;;;;;;;;5062689;28;20221;-65
2023/04/12 07:07:14;;;;;;;4.43;3.50;;;;;;;;;;5056806;28;20216;-64
2023/04/12 07:09:42;;;;;;;4.00;3.70;;;;;;;;;;5053719;28;20240;-63
2023/04/12 07:12:09;;;;;;;7.60;4.13;;;;;;;;;;5032543;28;20205;-64
2023/04/12 07:14:37;;;;;;;13.47;4.90;;;;;;;;;;5057464;28;20241;-64
2023/04/12 07:17:05;;;;;;;4.63;3.30;;;;;;;;;;5054140;28;20424;-65
2023/04/12 07:19:32;;;;;;;3.37;3.10;;;;;;;;;;5052327;28;20224;-63
2023/04/12 07:22:00;;;;;;;4.33;3.93;;;;;;;;;;5048432;28;20206;-64
2023/04/12 07:24:27;;;;;;;3.70;3.40;;;;;;;;;;5059963;28;20232;-65
2023/04/12 07:26:54;;;;;;;3.83;3.30;;;;;;;;;;5056724;28;20358;-63
2023/04/12 07:29:22;;;;;;;3.97;3.67;;;;;;;;;;5055000;28;20315;-63
2023/04/12 07:31:50;;;;;;;4.17;3.87;;;;;;;;;;5070440;28;20424;-65
2023/04/12 07:34:18;;;;;;;5.90;3.80;;;;;;;;;;5067888;28;20252;-63
2023/04/12 07:36:46;;;;;;;3.00;2.80;;;;;;;;;;5068924;28;20214;-63
2023/04/12 07:39:14;;;;;;;3.80;3.50;;;;;;;;;;5066006;28;20584;-63
2023/04/12 07:41:45;;;;;;;3.20;2.90;;;;;;;;;;5081363;28;20308;-63
2023/04/12 07:44:12;;;;;;;3.63;3.33;;;;;;;;;;5074154;28;20228;-63
2023/04/12 07:46:40;;;;;;;3.63;3.23;;;;;;;;;;5072019;28;20279;-65
2023/04/12 07:49:09;;;;;;;4.10;3.80;;;;;;;;;;5069311;28;20573;-64
2023/04/12 07:51:37;;;;;;;5.37;3.67;;;;;;;;;;5053737;28;20200;-65
2023/04/12 07:54:04;;;;;;;4.90;3.87;;;;;;;;;;5055329;28;20204;-65
2023/04/12 07:56:35;;;;;;;4.20;3.10;;;;;;;;;;5064274;28;20200;-63
2023/04/12 07:59:02;;;;;;;3.13;2.93;;;;;;;;;;5070379;28;20306;-63
2023/04/12 08:01:30;;;;;;;8.60;4.87;;;;;;;;;;5068159;28;21047;-63
2023/04/12 08:03:57;;;;;;;8.53;5.77;;;;;;;;;;5072219;28;20343;-65
2023/04/12 08:06:25;;;;;;;7.77;5.40;;;;;;;;;;5070217;28;20586;-63
2023/04/12 08:08:58;;;;;;;5.77;4.63;;;;;;;;;;5069560;28;20236;-63
2023/04/12 08:11:26;;;;;;;7.23;4.40;;;;;;;;;;5072220;28;20685;-63
2023/04/12 08:13:53;;;;;;;3.83;3.50;;;;;;;;;;5072378;28;20796;-64
2023/04/12 08:16:21;;;;;;;4.03;3.50;;;;;;;;;;5049052;28;21859;-63
2023/04/12 08:18:49;;;;;;;3.90;3.40;;;;;;;;;;5050129;28;20234;-65
2023/04/12 08:21:16;;;;;;;4.57;3.80;;;;;;;;;;5059963;28;20680;-64
2023/04/12 08:23:44;;;;;;;3.77;3.47;;;;;;;;;;5055141;28;20333;-63
2023/04/12 08:26:11;;;;;;;3.43;3.03;;;;;;;;;;5061831;28;20233;-63
2023/04/12 08:28:38;;;;;;;3.70;3.40;;;;;;;;;;5063902;28;20751;-63
2023/04/12 08:31:06;;;;;;;3.60;3.10;;;;;;;;;;5061844;28;20220;-63
2023/04/12 08:33:34;;;;;;;3.97;3.57;;;;;;;;;;5081575;28;20250;-63
2023/04/12 08:36:01;;;;;;;3.87;3.47;;;;;;;;;;5063669;28;20320;-63
2023/04/12 08:38:29;;;;;;;3.93;3.63;;;;;;;;;;5063196;28;20201;-63
2023/04/12 08:41:12;;;;;;;4.77;3.90;;;;;;;;;;5046578;28;20838;-63
2023/04/12 08:43:43;;;;;;;3.90;3.57;;;;;;;;;;5046050;28;20205;-63
2023/04/12 08:46:14;;;;;;;4.23;3.83;;;;;;;;;;5061235;28;20208;-64
2023/04/12 08:48:44;;;;;;;4.73;4.20;;;;;;;;;;5064063;28;20668;-63
2023/04/12 08:51:16;;;;;;;4.37;3.97;;;;;;;;;;5066008;28;20607;-63
2023/04/12 08:53:45;;;;;;;3.80;3.50;;;;;;;;;;5043831;28;20390;-63
2023/04/12 08:56:13;;;;;;;4.20;3.73;;;;;;;;;;5052118;28;20224;-62
2023/04/12 08:58:45;;;;;;;3.90;3.50;;;;;;;;;;5034201;28;20215;-65
2023/04/12 09:01:14;;;;;;;3.83;3.40;;;;;;;;;;5046783;28;20209;-64
2023/04/12 09:03:42;;;;;;;5.10;3.77;;;;;;;;;;5039161;28;20670;-64
2023/04/12 09:06:10;;;;;;;3.40;3.07;;;;;;;;;;5060447;28;20207;-65
2023/04/12 09:08:54;;;;;;;3.63;3.33;;;;;;;;;;5064643;28;20812;-64
2023/04/12 09:11:26;;;;;;;3.43;3.23;;;;;;;;;;5063307;28;20236;-65
2023/04/12 09:13:54;;;;;;;3.63;3.30;;;;;;;;;;5076678;28;20217;-65
2023/04/12 09:16:34;;;;;;;3.73;3.43;;;;;;;;;;5068613;28;20240;-65
2023/04/12 09:19:02;;;;;;;4.10;3.63;;;;;;;;;;5056261;28;20254;-64
2023/04/12 09:21:31;;;;;;;3.50;3.20;;;;;;;;;;5056058;28;20228;-65
2023/04/12 09:24:03;;;;;;;4.13;3.73;;;;;;;;;;5054414;28;20254;-65
2023/04/12 09:26:30;;;;;;;4.10;3.63;;;;;;;;;;5055410;28;20209;-63
2023/04/12 09:28:57;;;;;;;3.60;3.30;;;;;;;;;;5069493;28;20229;-64
2023/04/12 09:31:25;;;;;;;4.10;3.70;;;;;;;;;;5063238;28;20216;-64
2023/04/12 09:34:00;;;;;;;6.03;4.47;;;;;;;;;;5068755;28;20214;-65
2023/04/12 09:36:36;;;;;;;3.73;3.43;;;;;;;;;;5060792;28;20744;-63
2023/04/12 09:39:04;;;;;;;3.53;3.20;;;;;;;;;;5066726;28;20240;-64
2023/04/12 09:41:32;;;;;;;3.93;3.50;;;;;;;;;;5070818;28;20209;-64
2023/04/12 09:44:00;;;;;;;3.93;3.63;;;;;;;;;;5054040;28;20215;-65
2023/04/12 09:46:27;;;;;;;4.10;3.80;;;;;;;;;;5068035;28;20279;-65
2023/04/12 09:48:57;;;;;;;3.90;3.50;;;;;;;;;;5062669;28;20243;-65
2023/04/12 09:51:32;;;;;;;4.33;3.80;;;;;;;;;;5059292;28;20209;-65
2023/04/12 09:54:01;;;;;;;4.33;3.63;;;;;;;;;;5067628;28;20262;-65
2023/04/12 09:56:38;;;;;;;5.43;3.90;;;;;;;;;;5036066;28;20231;-65
2023/04/12 09:59:06;;;;;;;6.07;4.30;;;;;;;;;;5050525;28;21498;-65
2023/04/12 10:01:37;;;;;;;4.50;4.10;;;;;;;;;;5049387;28;20217;-65
2023/04/12 10:04:06;;;;;;;6.17;4.10;;;;;;;;;;5050409;28;20210;-65
2023/04/12 10:06:35;;;;;;;4.00;3.67;;;;;;;;;;5054457;28;20772;-65
2023/04/12 10:09:03;;;;;;;5.73;3.90;;;;;;;;;;5048521;28;23239;-65
2023/04/12 10:11:35;;;;;;;6.90;4.17;;;;;;;;;;5048477;28;20209;-65
2023/04/12 10:14:03;;;;;;;5.23;4.73;;;;;;;;;;5043796;28;20290;-66
2023/04/12 10:16:30;;;;;;;5.07;4.57;;;;;;;;;;5028646;28;20228;-65
2023/04/12 10:19:00;;;;;;;8.80;6.70;;;;;;;;;;5027716;28;20796;-65
2023/04/12 10:21:28;;;;;;;6.73;5.63;;;;;;;;;;5033948;28;20702;-65
2023/04/12 10:23:55;;;;;;;7.87;5.50;;;;;;;;;;5020310;28;20221;-65
2023/04/12 10:26:23;;;;;;;6.80;4.90;;;;;;;;;;5055236;28;20794;-65
2023/04/12 10:29:10;;;;;;;5.37;4.87;;;;;;;;;;5056171;28;20314;-65
2023/04/12 10:31:38;;;;;;;6.60;4.93;;;;;;;;;;5052274;28;20224;-65
2023/04/12 10:34:06;;;;;;;7.40;5.47;;;;;;;;;;5066242;28;21412;-65
2023/04/12 10:36:53;;;;;;;5.67;5.17;;;;;;;;;;5051793;28;21197;-65
2023/04/12 10:39:39;;;;;;;6.70;5.27;;;;;;;;;;5046318;28;20640;-65
2023/04/12 10:42:20;;;;;;;5.17;4.67;;;;;;;;;;5056516;28;20201;-65
2023/04/12 10:44:48;;;;;;;3.97;3.63;;;;;;;;;;5064660;28;20700;-65
2023/04/12 10:47:16;;;;;;;4.77;3.80;;;;;;;;;;5058584;28;20254;-65
2023/04/12 10:50:04;;;;;;;6.13;4.10;;;;;;;;;;5048699;28;20236;-65
2023/04/12 10:52:31;;;;;;;3.93;3.33;;;;;;;;;;5027687;28;20612;-65
2023/04/12 10:55:19;;;;;;;3.50;3.17;;;;;;;;;;5048900;28;20197;-65
2023/04/12 10:57:48;;;;;;;2.50;2.30;;;;;;;;;;5055635;28;20197;-65
2023/04/12 11:00:16;;;;;;;4.07;2.60;;;;;;;;;;5063984;28;20288;-65
2023/04/12 11:03:04;;;;;;;2.57;1.70;;;;;;;;;;5037872;28;20212;-66
2023/04/12 11:05:52;;;;;;;1.93;1.83;;;;;;;;;;5027696;28;20212;-65
2023/04/12 11:08:19;;;;;;;2.57;1.87;;;;;;;;;;5071162;28;20245;-65
2023/04/12 11:10:47;;;;;;;1.40;1.30;;;;;;;;;;5070129;28;20232;-65
2023/04/12 11:13:15;;;;;;;1.60;1.50;;;;;;;;;;5068472;28;20289;-65
2023/04/12 11:15:43;;;;;;;1.33;1.23;;;;;;;;;;5049883;28;20235;-65
2023/04/12 11:18:10;;;;;;;3.03;1.70;;;;;;;;;;5043381;28;20315;-65
2023/04/12 11:20:41;;;;;;;3.83;1.80;;;;;;;;;;5051742;28;20212;-65
2023/04/12 11:23:11;;;;;;;2.03;1.53;;;;;;;;;;5070260;28;20682;-65
2023/04/12 11:25:39;;;;;;;1.70;1.60;;;;;;;;;;5066480;28;20270;-65
2023/04/12 11:28:06;;;;;;;3.53;3.23;;;;;;;;;;5053161;28;20209;-64
2023/04/12 11:30:54;;;;;;;8.30;7.50;;;;;;;;;;5065373;28;20393;-65
2023/04/12 11:33:31;;;;;;;6.43;5.90;;;;;;;;;;5068866;28;20213;-65
2023/04/12 11:35:58;;;;;;;6.27;4.40;;;;;;;;;;5065453;28;20317;-64
2023/04/12 11:38:26;;;;;;;4.03;3.70;;;;;;;;;;5070420;28;20225;-65
2023/04/12 11:40:53;;;;;;;3.80;3.50;;;;;;;;;;5053158;28;20213;-65
2023/04/12 11:43:21;;;;;;;3.70;2.70;;;;;;;;;;5063952;28;20204;-65
2023/04/12 11:45:48;;;;;;;9.60;7.90;;;;;;;;;;5046967;28;20224;-65
2023/04/12 11:48:16;;;;;;;7.30;6.63;;;;;;;;;;5058723;28;20209;-65
2023/04/12 11:50:43;;;;;;;4.67;4.20;;;;;;;;;;5063337;28;20228;-64
2023/04/12 11:53:11;;;;;;;3.07;1.90;;;;;;;;;;5072420;28;20243;-65
2023/04/12 11:55:39;;;;;;;3.60;1.70;;;;;;;;;;5056445;28;20591;-65
2023/04/12 11:58:06;;;;;;;2.57;2.37;;;;;;;;;;5044284;28;20616;-65
2023/04/12 12:00:34;;;;;;;2.80;2.60;;;;;;;;;;5063735;28;20316;-65
2023/04/12 12:03:02;;;;;;;2.90;1.90;;;;;;;;;;5068251;28;20635;-64
2023/04/12 12:05:39;;;;;;;3.07;1.60;;;;;;;;;;5072311;28;20205;-65
2023/04/12 12:08:08;;;;;;;1.47;1.37;;;;;;;;;;5070630;28;20209;-64
2023/04/12 12:10:36;;;;;;;4.77;1.50;;;;;;;;;;5082978;28;20273;-65
2023/04/12 12:13:22;;;;;;;1.63;1.30;;;;;;;;;;5077872;28;20292;-65
2023/04/12 12:15:51;;;;;;;1.60;1.50;;;;;;;;;;5065936;28;20225;-65
2023/04/12 12:18:20;;;;;;;1.20;1.10;;;;;;;;;;5065748;28;20250;-64
2023/04/12 12:20:48;;;;;;;1.20;1.10;;;;;;;;;;5078553;28;21665;-64
2023/04/12 12:23:28;;;;;;;1.50;1.20;;;;;;;;;;5066348;28;20204;-65
2023/04/12 12:25:59;;;;;;;1.00;1.00;;;;;;;;;;5060334;28;20290;-65
2023/04/12 12:28:49;;;;;;;0.97;0.97;;;;;;;;;;5076183;28;20898;-65
2023/04/12 12:31:19;;;;;;;1.03;1.00;;;;;;;;;;5058792;28;20220;-64
2023/04/12 12:33:46;;;;;;;0.97;0.97;;;;;;;;;;5077826;28;20213;-64
2023/04/12 12:36:20;;;;;;;3.20;2.97;;;;;;;;;;5061270;28;20236;-65
2023/04/12 12:38:50;;;;;;;1.50;1.37;;;;;;;;;;5081907;28;20666;-65
2023/04/12 12:41:22;;;;;;;1.07;1.07;;;;;;;;;;5074504;28;20300;-64
2023/04/12 12:43:50;;;;;;;0.90;0.90;;;;;;;;;;5064462;28;20232;-64
2023/04/12 12:46:19;;;;;;;1.30;1.20;;;;;;;;;;5065074;28;20255;-64
2023/04/12 12:48:47;;;;;;;1.47;1.30;;;;;;;;;;5061491;28;20217;-64
2023/04/12 12:51:19;;;;;;;0.93;0.93;;;;;;;;;;5066710;28;20213;-64
2023/04/12 12:53:47;;;;;;;0.90;0.90;;;;;;;;;;5060384;28;20253;-64
2023/04/12 12:56:15;;;;;;;1.10;1.00;;;;;;;;;;5068991;28;20213;-65
2023/04/12 12:58:45;;;;;;;1.77;0.80;;;;;;;;;;5065126;28;20196;-65
2023/04/12 13:01:13;;;;;;;1.20;1.10;;;;;;;;;;5078845;28;20675;-65
2023/04/12 13:03:40;;;;;;;0.90;0.90;;;;;;;;;;5075504;28;20207;-65
2023/04/12 13:06:08;;;;;;;1.07;0.83;;;;;;;;;;5072823;28;20224;-65
2023/04/12 13:08:36;;;;;;;1.40;1.30;;;;;;;;;;5062850;28;20797;-65
2023/04/12 13:11:03;;;;;;;2.43;1.90;;;;;;;;;;5070838;28;20308;-65
2023/04/12 13:13:30;;;;;;;2.03;1.20;;;;;;;;;;5070691;28;21185;-66
2023/04/12 13:15:58;;;;;;;1.70;1.00;;;;;;;;;;5074734;28;20220;-66
2023/04/12 13:18:25;;;;;;;1.60;0.97;;;;;;;;;;5050659;28;20201;-65
2023/04/12 13:20:53;;;;;;;0.77;0.77;;;;;;;;;;5072664;28;20579;-65
2023/04/12 13:23:20;;;;;;;0.80;0.80;;;;;;;;;;5068556;28;20619;-64
2023/04/12 13:25:47;;;;;;;1.00;0.90;;;;;;;;;;5057224;28;20693;-64
2023/04/12 13:28:16;;;;;;;0.80;0.80;;;;;;;;;;5056631;28;20263;-64
2023/04/12 13:30:43;;;;;;;1.00;0.80;;;;;;;;;;5071045;28;20823;-64
2023/04/12 13:33:10;;;;;;;0.83;0.83;;;;;;;;;;5070069;28;20589;-65
2023/04/12 13:35:44;;;;;;;0.90;0.90;;;;;;;;;;5057419;28;20200;-64
2023/04/12 13:38:12;;;;;;;0.80;0.80;;;;;;;;;;5067605;28;23200;-66
2023/04/12 13:40:39;;;;;;;2.10;0.90;;;;;;;;;;5071573;28;20871;-66
2023/04/12 13:43:07;;;;;;;0.87;0.83;;;;;;;;;;5080827;28;20216;-66
2023/04/12 13:45:34;;;;;;;0.80;0.80;;;;;;;;;;5073792;28;20888;-66
2023/04/12 13:48:02;;;;;;;0.70;0.70;;;;;;;;;;5060241;28;20213;-66
2023/04/12 13:50:30;;;;;;;0.80;0.80;;;;;;;;;;5064387;28;20237;-65
2023/04/12 13:52:57;;;;;;;0.90;0.80;;;;;;;;;;5045068;28;20233;-66
2023/04/12 13:55:24;;;;;;;0.90;0.90;;;;;;;;;;5047643;28;20292;-66
2023/04/12 13:57:52;;;;;;;1.30;0.80;;;;;;;;;;5053367;28;20716;-66
2023/04/12 14:00:20;;;;;;;0.83;0.83;;;;;;;;;;5058842;28;20718;-66
2023/04/12 14:02:47;;;;;;;1.57;1.13;;;;;;;;;;5054081;28;21494;-66
2023/04/12 14:05:15;;;;;;;1.53;0.83;;;;;;;;;;5063322;28;20204;-66
2023/04/12 14:07:42;;;;;;;0.80;0.80;;;;;;;;;;5060075;28;20227;-70
2023/04/12 14:10:09;;;;;;;3.20;2.27;;;;;;;;;;5075074;28;20321;-66
2023/04/12 14:12:37;;;;;;;3.13;2.47;;;;;;;;;;5073349;28;20744;-66
2023/04/12 14:15:04;;;;;;;1.90;1.80;;;;;;;;;;5092659;28;20208;-66
2023/04/12 14:17:32;;;;;;;1.90;1.80;;;;;;;;;;5068719;28;20225;-66
2023/04/12 14:20:00;;;;;;;1.20;1.10;;;;;;;;;;5070798;28;20285;-66
2023/04/12 14:22:27;;;;;;;2.53;1.63;;;;;;;;;;5072336;28;20235;-66
2023/04/12 14:24:55;;;;;;;0.90;0.90;;;;;;;;;;5091227;28;20330;-65
2023/04/12 14:27:25;;;;;;;2.07;1.87;;;;;;;;;;5074562;28;20255;-66
2023/04/12 14:29:52;;;;;;;1.80;1.70;;;;;;;;;;5068545;28;20630;-66
2023/04/12 14:32:20;;;;;;;2.67;1.90;;;;;;;;;;5088137;28;20216;-66
2023/04/12 14:34:48;;;;;;;1.80;1.70;;;;;;;;;;5083958;28;20231;-66
2023/04/12 14:37:15;;;;;;;1.60;1.50;;;;;;;;;;5071531;28;20257;-65
2023/04/12 14:39:43;;;;;;;1.20;1.20;;;;;;;;;;5065710;28;20286;-65
2023/04/12 14:42:11;;;;;;;2.00;1.47;;;;;;;;;;5071245;28;20207;-65
2023/04/12 14:44:39;;;;;;;1.30;1.20;;;;;;;;;;5087707;28;20208;-65
2023/04/12 14:47:06;;;;;;;1.70;1.60;;;;;;;;;;5068935;28;20271;-66
2023/04/12 14:49:34;;;;;;;2.53;1.43;;;;;;;;;;5082216;28;20224;-66
2023/04/12 14:52:01;;;;;;;1.47;1.20;;;;;;;;;;5068938;28;20241;-67
2023/04/12 14:54:28;;;;;;;2.30;1.40;;;;;;;;;;5066072;28;20204;-65